sensor_id;sensor_type;location;lat;lon;timestamp;temperature;humidity
75387;DHT22;63966;47.914;22.266;2022-12-04T00:00:51;2.28;94.16
75387;DHT22;63966;47.914;22.266;2022-12-04T00:03:57;2.24;94.33
75387;DHT22;63966;47.914;22.266;2022-12-04T00:07:00;2.17;94.49
75387;DHT22;63966;47.914;22.266;2022-12-04T00:10:04;2.13;94.50
75387;DHT22;63966;47.914;22.266;2022-12-04T00:13:08;2.05;94.77
75387;DHT22;63966;47.914;22.266;2022-12-04T00:16:14;2.05;94.98
75387;DHT22;63966;47.914;22.266;2022-12-04T00:19:18;2.05;95.03
75387;DHT22;63966;47.914;22.266;2022-12-04T00:22:22;2.08;95.06
75387;DHT22;63966;47.914;22.266;2022-12-04T00:25:26;2.14;94.92
75387;DHT22;63966;47.914;22.266;2022-12-04T00:28:29;2.26;94.58
75387;DHT22;63966;47.914;22.266;2022-12-04T00:31:33;2.21;94.58
75387;DHT22;63966;47.914;22.266;2022-12-04T00:34:37;2.22;94.65
75387;DHT22;63966;47.914;22.266;2022-12-04T00:37:40;2.22;94.67
75387;DHT22;63966;47.914;22.266;2022-12-04T00:40:51;2.22;94.74
75387;DHT22;63966;47.914;22.266;2022-12-04T00:43:54;2.25;94.75
75387;DHT22;63966;47.914;22.266;2022-12-04T00:46:58;2.18;94.86
75387;DHT22;63966;47.914;22.266;2022-12-04T00:50:02;2.22;94.66
75387;DHT22;63966;47.914;22.266;2022-12-04T00:53:05;2.26;94.65
75387;DHT22;63966;47.914;22.266;2022-12-04T00:56:13;2.32;94.81
75387;DHT22;63966;47.914;22.266;2022-12-04T00:59:16;2.22;94.86
75387;DHT22;63966;47.914;22.266;2022-12-04T01:02:20;2.21;94.97
75387;DHT22;63966;47.914;22.266;2022-12-04T01:05:24;2.15;95.17
75387;DHT22;63966;47.914;22.266;2022-12-04T01:08:28;2.18;95.18
75387;DHT22;63966;47.914;22.266;2022-12-04T01:11:32;2.31;94.97
75387;DHT22;63966;47.914;22.266;2022-12-04T01:14:36;2.32;94.58
75387;DHT22;63966;47.914;22.266;2022-12-04T01:17:39;2.22;94.67
75387;DHT22;63966;47.914;22.266;2022-12-04T01:20:47;2.13;94.81
75387;DHT22;63966;47.914;22.266;2022-12-04T01:23:52;2.18;94.81
75387;DHT22;63966;47.914;22.266;2022-12-04T01:26:55;2.22;94.58
75387;DHT22;63966;47.914;22.266;2022-12-04T01:29:59;2.26;94.55
75387;DHT22;63966;47.914;22.266;2022-12-04T01:33:02;2.20;94.72
75387;DHT22;63966;47.914;22.266;2022-12-04T01:36:09;2.17;95.08
75387;DHT22;63966;47.914;22.266;2022-12-04T01:39:13;2.17;95.14
75387;DHT22;63966;47.914;22.266;2022-12-04T01:42:17;2.15;95.33
75387;DHT22;63966;47.914;22.266;2022-12-04T01:45:41;2.26;94.96
75387;DHT22;63966;47.914;22.266;2022-12-04T01:48:52;2.22;95.01
75387;DHT22;63966;47.914;22.266;2022-12-04T01:52:06;2.20;95.03
75387;DHT22;63966;47.914;22.266;2022-12-04T01:55:11;2.21;95.13
75387;DHT22;63966;47.914;22.266;2022-12-04T01:58:17;2.28;95.18
75387;DHT22;63966;47.914;22.266;2022-12-04T02:01:25;2.34;94.88
75387;DHT22;63966;47.914;22.266;2022-12-04T02:04:30;2.31;94.68
75387;DHT22;63966;47.914;22.266;2022-12-04T02:07:37;2.21;94.71
75387;DHT22;63966;47.914;22.266;2022-12-04T02:10:54;2.15;95.03
75387;DHT22;63966;47.914;22.266;2022-12-04T02:30:39;1.55;95.36
75387;DHT22;63966;47.914;22.266;2022-12-04T02:33:44;1.53;95.67
75387;DHT22;63966;47.914;22.266;2022-12-04T02:36:59;1.55;95.83
75387;DHT22;63966;47.914;22.266;2022-12-04T02:40:21;1.77;95.90
75387;DHT22;63966;47.914;22.266;2022-12-04T02:43:34;1.77;95.83
75387;DHT22;63966;47.914;22.266;2022-12-04T02:46:43;1.84;95.95
75387;DHT22;63966;47.914;22.266;2022-12-04T02:49:58;1.83;95.98
75387;DHT22;63966;47.914;22.266;2022-12-04T02:53:24;1.81;95.76
75387;DHT22;63966;47.914;22.266;2022-12-04T02:56:31;1.80;95.74
75387;DHT22;63966;47.914;22.266;2022-12-04T02:59:45;1.83;95.67
75387;DHT22;63966;47.914;22.266;2022-12-04T03:02:58;1.94;95.34
75387;DHT22;63966;47.914;22.266;2022-12-04T03:06:07;1.88;95.20
75387;DHT22;63966;47.914;22.266;2022-12-04T03:09:36;1.88;95.03
75387;DHT22;63966;47.914;22.266;2022-12-04T03:12:54;1.76;95.04
75387;DHT22;63966;47.914;22.266;2022-12-04T03:19:20;1.78;95.26
75387;DHT22;63966;47.914;22.266;2022-12-04T03:22:26;1.78;94.87
75387;DHT22;63966;47.914;22.266;2022-12-04T03:25:36;1.63;95.14
75387;DHT22;63966;47.914;22.266;2022-12-04T03:28:53;1.62;95.49
75387;DHT22;63966;47.914;22.266;2022-12-04T03:35:28;1.86;95.06
75387;DHT22;63966;47.914;22.266;2022-12-04T03:38:56;1.81;94.75
75387;DHT22;63966;47.914;22.266;2022-12-04T03:42:17;1.74;94.70
75387;DHT22;63966;47.914;22.266;2022-12-04T03:45:53;1.68;94.64
75387;DHT22;63966;47.914;22.266;2022-12-04T03:49:15;1.62;94.63
75387;DHT22;63966;47.914;22.266;2022-12-04T03:52:41;1.55;95.15
75387;DHT22;63966;47.914;22.266;2022-12-04T03:55:57;1.40;95.49
75387;DHT22;63966;47.914;22.266;2022-12-04T03:59:14;1.46;95.49
75387;DHT22;63966;47.914;22.266;2022-12-04T04:02:23;1.38;95.62
75387;DHT22;63966;47.914;22.266;2022-12-04T04:05:28;1.38;95.70
75387;DHT22;63966;47.914;22.266;2022-12-04T04:08:34;1.29;95.86
75387;DHT22;63966;47.914;22.266;2022-12-04T04:12:05;1.18;96.06
75387;DHT22;63966;47.914;22.266;2022-12-04T04:15:13;1.26;96.15
75387;DHT22;63966;47.914;22.266;2022-12-04T04:18:38;1.31;96.07
75387;DHT22;63966;47.914;22.266;2022-12-04T04:22:03;1.24;96.28
75387;DHT22;63966;47.914;22.266;2022-12-04T04:25:27;1.19;96.44
75387;DHT22;63966;47.914;22.266;2022-12-04T04:28:34;1.19;96.47
75387;DHT22;63966;47.914;22.266;2022-12-04T04:31:52;1.17;96.43
75387;DHT22;63966;47.914;22.266;2022-12-04T04:35:16;1.14;96.35
75387;DHT22;63966;47.914;22.266;2022-12-04T04:41:40;1.22;96.29
75387;DHT22;63966;47.914;22.266;2022-12-04T04:48:15;1.22;96.34
75387;DHT22;63966;47.914;22.266;2022-12-04T04:51:23;1.21;96.25
75387;DHT22;63966;47.914;22.266;2022-12-04T04:54:28;1.12;96.30
75387;DHT22;63966;47.914;22.266;2022-12-04T04:57:34;1.22;96.25
75387;DHT22;63966;47.914;22.266;2022-12-04T05:00:38;1.25;96.26
75387;DHT22;63966;47.914;22.266;2022-12-04T05:03:42;1.26;96.39
75387;DHT22;63966;47.914;22.266;2022-12-04T05:06:46;1.21;96.32
75387;DHT22;63966;47.914;22.266;2022-12-04T05:09:51;1.17;96.23
75387;DHT22;63966;47.914;22.266;2022-12-04T05:12:54;1.17;96.32
75387;DHT22;63966;47.914;22.266;2022-12-04T05:15:59;1.21;96.29
75387;DHT22;63966;47.914;22.266;2022-12-04T05:19:03;1.24;96.16
75387;DHT22;63966;47.914;22.266;2022-12-04T05:22:35;1.26;95.51
75387;DHT22;63966;47.914;22.266;2022-12-04T05:25:38;1.21;95.25
75387;DHT22;63966;47.914;22.266;2022-12-04T05:28:42;1.25;95.39
75387;DHT22;63966;47.914;22.266;2022-12-04T05:31:45;1.34;95.50
75387;DHT22;63966;47.914;22.266;2022-12-04T05:34:54;1.31;95.33
75387;DHT22;63966;47.914;22.266;2022-12-04T05:37:58;1.26;95.67
75387;DHT22;63966;47.914;22.266;2022-12-04T05:41:04;1.26;95.88
75387;DHT22;63966;47.914;22.266;2022-12-04T05:44:07;1.19;95.97
75387;DHT22;63966;47.914;22.266;2022-12-04T05:47:11;1.24;95.93
75387;DHT22;63966;47.914;22.266;2022-12-04T05:50:14;1.26;95.57
75387;DHT22;63966;47.914;22.266;2022-12-04T05:53:17;1.11;95.69
75387;DHT22;63966;47.914;22.266;2022-12-04T05:56:21;1.04;95.85
75387;DHT22;63966;47.914;22.266;2022-12-04T05:59:24;1.12;95.89
75387;DHT22;63966;47.914;22.266;2022-12-04T06:02:28;1.11;95.86
75387;DHT22;63966;47.914;22.266;2022-12-04T06:05:32;1.19;95.95
75387;DHT22;63966;47.914;22.266;2022-12-04T06:08:35;1.21;95.77
75387;DHT22;63966;47.914;22.266;2022-12-04T06:11:40;1.17;95.38
75387;DHT22;63966;47.914;22.266;2022-12-04T06:14:43;1.19;95.48
75387;DHT22;63966;47.914;22.266;2022-12-04T06:17:47;1.19;95.42
75387;DHT22;63966;47.914;22.266;2022-12-04T06:20:50;1.19;95.59
75387;DHT22;63966;47.914;22.266;2022-12-04T06:23:54;1.17;95.40
75387;DHT22;63966;47.914;22.266;2022-12-04T06:26:59;1.31;95.10
75387;DHT22;63966;47.914;22.266;2022-12-04T06:30:22;1.32;95.01
75387;DHT22;63966;47.914;22.266;2022-12-04T06:33:26;1.26;95.12
75387;DHT22;63966;47.914;22.266;2022-12-04T06:36:29;1.28;95.36
75387;DHT22;63966;47.914;22.266;2022-12-04T06:39:33;1.38;95.31
75387;DHT22;63966;47.914;22.266;2022-12-04T06:42:36;1.43;95.10
75387;DHT22;63966;47.914;22.266;2022-12-04T06:45:40;1.52;94.74
75387;DHT22;63966;47.914;22.266;2022-12-04T06:48:44;1.57;94.57
75387;DHT22;63966;47.914;22.266;2022-12-04T06:51:47;1.66;94.29
75387;DHT22;63966;47.914;22.266;2022-12-04T06:54:51;1.86;93.50
75387;DHT22;63966;47.914;22.266;2022-12-04T06:57:54;2.13;92.73
75387;DHT22;63966;47.914;22.266;2022-12-04T07:00:58;2.35;92.19
75387;DHT22;63966;47.914;22.266;2022-12-04T07:04:02;2.75;91.40
75387;DHT22;63966;47.914;22.266;2022-12-04T07:07:08;3.08;89.35
75387;DHT22;63966;47.914;22.266;2022-12-04T07:10:12;3.11;88.41
75387;DHT22;63966;47.914;22.266;2022-12-04T07:13:15;3.10;88.69
75387;DHT22;63966;47.914;22.266;2022-12-04T07:16:21;3.35;88.06
75387;DHT22;63966;47.914;22.266;2022-12-04T07:19:24;3.86;86.99
75387;DHT22;63966;47.914;22.266;2022-12-04T07:22:28;4.20;85.38
75387;DHT22;63966;47.914;22.266;2022-12-04T07:25:31;4.45;84.42
75387;DHT22;63966;47.914;22.266;2022-12-04T07:28:35;4.48;83.93
75387;DHT22;63966;47.914;22.266;2022-12-04T07:31:39;4.33;85.13
75387;DHT22;63966;47.914;22.266;2022-12-04T07:34:43;4.27;86.04
75387;DHT22;63966;47.914;22.266;2022-12-04T07:37:46;4.18;86.19
75387;DHT22;63966;47.914;22.266;2022-12-04T07:40:50;4.13;87.19
75387;DHT22;63966;47.914;22.266;2022-12-04T07:43:53;3.86;87.12
75387;DHT22;63966;47.914;22.266;2022-12-04T07:46:57;3.75;88.53
75387;DHT22;63966;47.914;22.266;2022-12-04T07:50:01;3.73;89.14
75387;DHT22;63966;47.914;22.266;2022-12-04T07:53:04;3.76;89.20
75387;DHT22;63966;47.914;22.266;2022-12-04T07:56:10;3.77;89.39
75387;DHT22;63966;47.914;22.266;2022-12-04T07:59:13;3.68;90.08
75387;DHT22;63966;47.914;22.266;2022-12-04T08:02:17;3.80;90.49
75387;DHT22;63966;47.914;22.266;2022-12-04T08:05:21;3.83;90.64
75387;DHT22;63966;47.914;22.266;2022-12-04T08:08:24;4.00;91.05
75387;DHT22;63966;47.914;22.266;2022-12-04T08:11:28;4.24;90.08
75387;DHT22;63966;47.914;22.266;2022-12-04T08:14:31;4.31;90.40
75387;DHT22;63966;47.914;22.266;2022-12-04T08:17:38;4.44;89.50
75387;DHT22;63966;47.914;22.266;2022-12-04T08:20:42;4.58;89.07
75387;DHT22;63966;47.914;22.266;2022-12-04T08:23:47;4.71;88.78
75387;DHT22;63966;47.914;22.266;2022-12-04T08:26:50;4.85;88.37
75387;DHT22;63966;47.914;22.266;2022-12-04T08:29:54;4.87;88.64
75387;DHT22;63966;47.914;22.266;2022-12-04T08:32:58;4.92;88.20
75387;DHT22;63966;47.914;22.266;2022-12-04T08:36:04;5.03;88.10
75387;DHT22;63966;47.914;22.266;2022-12-04T08:39:10;5.13;87.63
75387;DHT22;63966;47.914;22.266;2022-12-04T08:42:14;5.12;87.41
75387;DHT22;63966;47.914;22.266;2022-12-04T08:45:18;5.00;87.49
75387;DHT22;63966;47.914;22.266;2022-12-04T08:48:21;4.96;88.33
75387;DHT22;63966;47.914;22.266;2022-12-04T08:51:30;5.10;87.89
75387;DHT22;63966;47.914;22.266;2022-12-04T08:54:33;5.17;87.73
75387;DHT22;63966;47.914;22.266;2022-12-04T08:57:38;5.16;87.37
75387;DHT22;63966;47.914;22.266;2022-12-04T09:00:42;5.19;88.14
75387;DHT22;63966;47.914;22.266;2022-12-04T09:03:46;5.19;87.75
75387;DHT22;63966;47.914;22.266;2022-12-04T09:06:49;5.21;87.29
75387;DHT22;63966;47.914;22.266;2022-12-04T09:09:53;5.20;88.26
75387;DHT22;63966;47.914;22.266;2022-12-04T09:12:56;5.12;87.86
75387;DHT22;63966;47.914;22.266;2022-12-04T09:16:03;5.19;88.14
75387;DHT22;63966;47.914;22.266;2022-12-04T09:19:08;5.21;87.85
75387;DHT22;63966;47.914;22.266;2022-12-04T09:22:11;5.23;88.54
75387;DHT22;63966;47.914;22.266;2022-12-04T09:25:16;5.34;88.70
75387;DHT22;63966;47.914;22.266;2022-12-04T09:28:20;5.44;88.31
75387;DHT22;63966;47.914;22.266;2022-12-04T09:31:24;5.48;88.30
75387;DHT22;63966;47.914;22.266;2022-12-04T09:34:28;5.41;88.10
75387;DHT22;63966;47.914;22.266;2022-12-04T09:37:32;5.58;88.08
75387;DHT22;63966;47.914;22.266;2022-12-04T09:40:45;5.56;88.11
75387;DHT22;63966;47.914;22.266;2022-12-04T09:43:58;5.59;87.87
75387;DHT22;63966;47.914;22.266;2022-12-04T09:50:20;5.71;88.38
75387;DHT22;63966;47.914;22.266;2022-12-04T09:53:28;5.90;87.36
75387;DHT22;63966;47.914;22.266;2022-12-04T09:56:35;6.05;88.17
75387;DHT22;63966;47.914;22.266;2022-12-04T09:59:38;6.21;86.82
75387;DHT22;63966;47.914;22.266;2022-12-04T10:02:48;6.27;86.48
75387;DHT22;63966;47.914;22.266;2022-12-04T10:15:41;6.67;84.50
75387;DHT22;63966;47.914;22.266;2022-12-04T10:19:09;6.52;85.56
75387;DHT22;63966;47.914;22.266;2022-12-04T10:22:38;6.75;84.76
75387;DHT22;63966;47.914;22.266;2022-12-04T10:25:44;6.92;84.65
75387;DHT22;63966;47.914;22.266;2022-12-04T10:28:54;6.88;83.80
75387;DHT22;63966;47.914;22.266;2022-12-04T10:32:19;6.86;83.32
75387;DHT22;63966;47.914;22.266;2022-12-04T10:35:29;6.82;84.62
75387;DHT22;63966;47.914;22.266;2022-12-04T10:39:02;6.71;84.26
75387;DHT22;63966;47.914;22.266;2022-12-04T10:42:29;6.81;84.79
75387;DHT22;63966;47.914;22.266;2022-12-04T10:45:34;7.12;84.60
75387;DHT22;63966;47.914;22.266;2022-12-04T10:48:39;7.06;83.51
75387;DHT22;63966;47.914;22.266;2022-12-04T10:51:44;7.00;83.21
75387;DHT22;63966;47.914;22.266;2022-12-04T10:54:53;6.95;83.17
75387;DHT22;63966;47.914;22.266;2022-12-04T10:57:57;6.89;83.63
75387;DHT22;63966;47.914;22.266;2022-12-04T11:01:05;6.92;83.58
75387;DHT22;63966;47.914;22.266;2022-12-04T11:04:22;7.06;84.05
75387;DHT22;63966;47.914;22.266;2022-12-04T11:07:44;7.13;83.54
75387;DHT22;63966;47.914;22.266;2022-12-04T11:11:00;7.22;82.91
75387;DHT22;63966;47.914;22.266;2022-12-04T11:14:14;7.27;82.46
75387;DHT22;63966;47.914;22.266;2022-12-04T11:17:19;7.33;82.39
75387;DHT22;63966;47.914;22.266;2022-12-04T11:20:25;7.46;80.35
75387;DHT22;63966;47.914;22.266;2022-12-04T11:23:39;7.36;80.03
75387;DHT22;63966;47.914;22.266;2022-12-04T11:26:46;7.34;81.43
75387;DHT22;63966;47.914;22.266;2022-12-04T11:29:51;7.30;81.06
75387;DHT22;63966;47.914;22.266;2022-12-04T11:32:54;7.34;80.79
75387;DHT22;63966;47.914;22.266;2022-12-04T11:36:00;7.44;81.88
75387;DHT22;63966;47.914;22.266;2022-12-04T11:42:23;7.51;81.02
75387;DHT22;63966;47.914;22.266;2022-12-04T11:45:27;7.55;81.09
75387;DHT22;63966;47.914;22.266;2022-12-04T11:48:40;7.65;81.22
75387;DHT22;63966;47.914;22.266;2022-12-04T11:51:47;7.61;81.48
75387;DHT22;63966;47.914;22.266;2022-12-04T12:05:13;7.79;80.54
75387;DHT22;63966;47.914;22.266;2022-12-04T12:25:36;7.70;80.58
75387;DHT22;63966;47.914;22.266;2022-12-04T12:28:49;7.77;80.50
75387;DHT22;63966;47.914;22.266;2022-12-04T12:32:19;7.84;79.22
75387;DHT22;63966;47.914;22.266;2022-12-04T12:39:02;7.63;79.68
75387;DHT22;63966;47.914;22.266;2022-12-04T12:42:17;7.65;79.28
75387;DHT22;63966;47.914;22.266;2022-12-04T12:52:37;7.55;80.19
75387;DHT22;63966;47.914;22.266;2022-12-04T12:55:57;7.53;80.33
75387;DHT22;63966;47.914;22.266;2022-12-04T12:59:07;7.54;80.52
75387;DHT22;63966;47.914;22.266;2022-12-04T13:05:50;7.71;80.13
75387;DHT22;63966;47.914;22.266;2022-12-04T13:09:06;7.68;80.14
75387;DHT22;63966;47.914;22.266;2022-12-04T13:12:15;7.74;79.83
75387;DHT22;63966;47.914;22.266;2022-12-04T13:15:23;7.74;79.63
75387;DHT22;63966;47.914;22.266;2022-12-04T13:25:40;7.73;79.19
75387;DHT22;63966;47.914;22.266;2022-12-04T13:32:58;7.37;80.94
75387;DHT22;63966;47.914;22.266;2022-12-04T13:36:36;7.46;80.72
75387;DHT22;63966;47.914;22.266;2022-12-04T13:40:14;7.53;80.04
75387;DHT22;63966;47.914;22.266;2022-12-04T13:46:34;7.23;81.13
75387;DHT22;63966;47.914;22.266;2022-12-04T13:49:38;7.16;81.44
75387;DHT22;63966;47.914;22.266;2022-12-04T13:52:48;7.12;81.41
75387;DHT22;63966;47.914;22.266;2022-12-04T13:55:55;7.17;81.22
75387;DHT22;63966;47.914;22.266;2022-12-04T13:59:04;7.09;81.11
75387;DHT22;63966;47.914;22.266;2022-12-04T14:02:35;6.89;81.93
75387;DHT22;63966;47.914;22.266;2022-12-04T14:05:41;6.77;82.55
75387;DHT22;63966;47.914;22.266;2022-12-04T14:08:45;6.64;83.12
75387;DHT22;63966;47.914;22.266;2022-12-04T14:11:53;6.57;83.39
75387;DHT22;63966;47.914;22.266;2022-12-04T14:15:19;6.52;83.54
75387;DHT22;63966;47.914;22.266;2022-12-04T14:18:29;6.40;84.17
75387;DHT22;63966;47.914;22.266;2022-12-04T14:21:39;6.41;84.07
75387;DHT22;63966;47.914;22.266;2022-12-04T14:24:44;6.21;84.77
75387;DHT22;63966;47.914;22.266;2022-12-04T14:27:50;6.17;84.84
75387;DHT22;63966;47.914;22.266;2022-12-04T14:31:18;6.09;85.19
75387;DHT22;63966;47.914;22.266;2022-12-04T14:34:26;6.07;85.23
75387;DHT22;63966;47.914;22.266;2022-12-04T14:37:35;5.89;85.87
75387;DHT22;63966;47.914;22.266;2022-12-04T14:40:44;5.75;86.37
75387;DHT22;63966;47.914;22.266;2022-12-04T14:43:51;5.54;86.80
75387;DHT22;63966;47.914;22.266;2022-12-04T14:47:03;5.42;87.76
75387;DHT22;63966;47.914;22.266;2022-12-04T14:50:23;5.41;87.87
75387;DHT22;63966;47.914;22.266;2022-12-04T15:00:16;5.10;88.73
75387;DHT22;63966;47.914;22.266;2022-12-04T15:03:21;5.06;88.97
75387;DHT22;63966;47.914;22.266;2022-12-04T15:06:28;4.93;88.96
75387;DHT22;63966;47.914;22.266;2022-12-04T15:09:33;4.97;89.46
75387;DHT22;63966;47.914;22.266;2022-12-04T15:12:56;5.01;89.30
75387;DHT22;63966;47.914;22.266;2022-12-04T15:16:28;5.07;89.01
75387;DHT22;63966;47.914;22.266;2022-12-04T15:19:32;5.01;88.82
75387;DHT22;63966;47.914;22.266;2022-12-04T15:22:35;4.97;89.23
75387;DHT22;63966;47.914;22.266;2022-12-04T15:25:53;5.45;87.45
75387;DHT22;63966;47.914;22.266;2022-12-04T15:29:00;5.34;87.42
75387;DHT22;63966;47.914;22.266;2022-12-04T15:32:09;5.10;87.80
75387;DHT22;63966;47.914;22.266;2022-12-04T15:35:26;4.93;88.29
75387;DHT22;63966;47.914;22.266;2022-12-04T15:38:30;4.79;88.68
75387;DHT22;63966;47.914;22.266;2022-12-04T15:41:36;4.58;88.60
75387;DHT22;63966;47.914;22.266;2022-12-04T15:44:53;4.48;89.12
75387;DHT22;63966;47.914;22.266;2022-12-04T15:47:57;4.33;89.66
75387;DHT22;63966;47.914;22.266;2022-12-04T15:51:04;4.37;90.80
75387;DHT22;63966;47.914;22.266;2022-12-04T15:54:22;4.59;90.32
75387;DHT22;63966;47.914;22.266;2022-12-04T15:57:34;4.75;89.46
75387;DHT22;63966;47.914;22.266;2022-12-04T16:00:39;4.96;87.81
75387;DHT22;63966;47.914;22.266;2022-12-04T16:03:49;5.04;87.01
75387;DHT22;63966;47.914;22.266;2022-12-04T16:06:53;5.35;85.11
75387;DHT22;63966;47.914;22.266;2022-12-04T16:10:01;5.59;83.94
75387;DHT22;63966;47.914;22.266;2022-12-04T16:13:24;5.50;84.21
75387;DHT22;63966;47.914;22.266;2022-12-04T16:16:28;5.31;84.98
75387;DHT22;63966;47.914;22.266;2022-12-04T16:19:35;5.16;85.63
75387;DHT22;63966;47.914;22.266;2022-12-04T16:22:40;5.23;85.43
75387;DHT22;63966;47.914;22.266;2022-12-04T16:25:44;5.14;85.72
75387;DHT22;63966;47.914;22.266;2022-12-04T16:28:54;4.96;86.14
75387;DHT22;63966;47.914;22.266;2022-12-04T16:31:58;4.92;86.41
75387;DHT22;63966;47.914;22.266;2022-12-04T16:35:06;4.93;86.52
75387;DHT22;63966;47.914;22.266;2022-12-04T16:38:14;4.99;86.48
75387;DHT22;63966;47.914;22.266;2022-12-04T16:41:19;5.04;86.36
75387;DHT22;63966;47.914;22.266;2022-12-04T16:44:24;5.09;86.12
75387;DHT22;63966;47.914;22.266;2022-12-04T16:47:27;5.27;85.34
75387;DHT22;63966;47.914;22.266;2022-12-04T16:50:31;5.38;84.70
75387;DHT22;63966;47.914;22.266;2022-12-04T16:53:36;5.37;84.70
75387;DHT22;63966;47.914;22.266;2022-12-04T16:56:40;5.35;84.63
75387;DHT22;63966;47.914;22.266;2022-12-04T16:59:44;5.41;84.67
75387;DHT22;63966;47.914;22.266;2022-12-04T17:02:48;5.56;83.92
75387;DHT22;63966;47.914;22.266;2022-12-04T17:05:52;5.52;83.77
75387;DHT22;63966;47.914;22.266;2022-12-04T17:08:56;5.44;84.03
75387;DHT22;63966;47.914;22.266;2022-12-04T17:11:59;5.47;84.10
75387;DHT22;63966;47.914;22.266;2022-12-04T17:15:03;5.44;84.12
75387;DHT22;63966;47.914;22.266;2022-12-04T17:18:07;5.38;84.40
75387;DHT22;63966;47.914;22.266;2022-12-04T17:21:16;5.33;84.43
75387;DHT22;63966;47.914;22.266;2022-12-04T17:24:20;5.30;84.64
75387;DHT22;63966;47.914;22.266;2022-12-04T17:27:24;5.45;83.84
75387;DHT22;63966;47.914;22.266;2022-12-04T17:30:28;5.34;84.26
75387;DHT22;63966;47.914;22.266;2022-12-04T17:33:38;5.40;84.17
75387;DHT22;63966;47.914;22.266;2022-12-04T17:36:41;5.20;84.69
75387;DHT22;63966;47.914;22.266;2022-12-04T17:39:45;5.07;85.24
75387;DHT22;63966;47.914;22.266;2022-12-04T17:42:49;4.83;85.87
75387;DHT22;63966;47.914;22.266;2022-12-04T17:45:52;4.93;85.90
75387;DHT22;63966;47.914;22.266;2022-12-04T17:48:56;4.96;85.57
75387;DHT22;63966;47.914;22.266;2022-12-04T17:52:05;5.09;85.19
75387;DHT22;63966;47.914;22.266;2022-12-04T17:55:08;5.14;84.79
75387;DHT22;63966;47.914;22.266;2022-12-04T17:58:12;5.23;84.07
75387;DHT22;63966;47.914;22.266;2022-12-04T18:01:18;4.94;85.21
75387;DHT22;63966;47.914;22.266;2022-12-04T18:04:22;4.80;85.90
75387;DHT22;63966;47.914;22.266;2022-12-04T18:07:27;5.10;84.76
75387;DHT22;63966;47.914;22.266;2022-12-04T18:10:34;5.07;84.82
75387;DHT22;63966;47.914;22.266;2022-12-04T18:13:38;4.90;85.40
75387;DHT22;63966;47.914;22.266;2022-12-04T18:19:59;4.58;86.85
75387;DHT22;63966;47.914;22.266;2022-12-04T18:23:08;4.51;86.91
75387;DHT22;63966;47.914;22.266;2022-12-04T18:26:16;4.37;87.45
75387;DHT22;63966;47.914;22.266;2022-12-04T18:29:23;4.45;87.30
75387;DHT22;63966;47.914;22.266;2022-12-04T18:32:28;4.52;86.74
75387;DHT22;63966;47.914;22.266;2022-12-04T18:35:32;4.49;86.40
75387;DHT22;63966;47.914;22.266;2022-12-04T18:38:35;4.44;86.94
75387;DHT22;63966;47.914;22.266;2022-12-04T18:41:40;4.27;87.51
75387;DHT22;63966;47.914;22.266;2022-12-04T18:44:45;4.16;88.00
75387;DHT22;63966;47.914;22.266;2022-12-04T18:47:48;4.11;88.08
75387;DHT22;63966;47.914;22.266;2022-12-04T18:50:52;4.03;88.49
75387;DHT22;63966;47.914;22.266;2022-12-04T18:53:59;3.97;88.59
75387;DHT22;63966;47.914;22.266;2022-12-04T18:57:04;3.93;89.10
75387;DHT22;63966;47.914;22.266;2022-12-04T19:00:08;3.90;89.31
75387;DHT22;63966;47.914;22.266;2022-12-04T19:03:12;3.96;89.09
75387;DHT22;63966;47.914;22.266;2022-12-04T19:06:16;3.90;89.29
75387;DHT22;63966;47.914;22.266;2022-12-04T19:09:23;3.93;89.61
75387;DHT22;63966;47.914;22.266;2022-12-04T19:12:43;3.97;89.29
75387;DHT22;63966;47.914;22.266;2022-12-04T19:15:47;3.96;89.21
75387;DHT22;63966;47.914;22.266;2022-12-04T19:18:51;3.94;89.13
75387;DHT22;63966;47.914;22.266;2022-12-04T19:21:54;3.94;89.08
75387;DHT22;63966;47.914;22.266;2022-12-04T19:24:58;3.83;89.15
75387;DHT22;63966;47.914;22.266;2022-12-04T19:28:03;3.79;89.41
75387;DHT22;63966;47.914;22.266;2022-12-04T19:31:17;3.83;89.65
75387;DHT22;63966;47.914;22.266;2022-12-04T19:34:22;3.70;89.65
75387;DHT22;63966;47.914;22.266;2022-12-04T19:37:26;3.70;89.94
75387;DHT22;63966;47.914;22.266;2022-12-04T19:40:29;3.68;90.12
75387;DHT22;63966;47.914;22.266;2022-12-04T19:43:33;3.79;90.23
75387;DHT22;63966;47.914;22.266;2022-12-04T19:46:37;3.82;90.05
75387;DHT22;63966;47.914;22.266;2022-12-04T19:49:41;3.90;89.95
75387;DHT22;63966;47.914;22.266;2022-12-04T19:52:45;3.89;89.84
75387;DHT22;63966;47.914;22.266;2022-12-04T19:55:48;3.82;89.83
75387;DHT22;63966;47.914;22.266;2022-12-04T19:58:55;3.90;90.28
75387;DHT22;63966;47.914;22.266;2022-12-04T20:01:59;3.83;90.37
75387;DHT22;63966;47.914;22.266;2022-12-04T20:05:03;3.73;90.42
75387;DHT22;63966;47.914;22.266;2022-12-04T20:08:06;3.72;90.73
75387;DHT22;63966;47.914;22.266;2022-12-04T20:11:12;3.55;90.85
75387;DHT22;63966;47.914;22.266;2022-12-04T20:14:18;3.45;91.28
75387;DHT22;63966;47.914;22.266;2022-12-04T20:17:21;3.43;91.66
75387;DHT22;63966;47.914;22.266;2022-12-04T20:20:25;3.36;91.74
75387;DHT22;63966;47.914;22.266;2022-12-04T20:23:29;3.27;92.09
75387;DHT22;63966;47.914;22.266;2022-12-04T20:26:35;3.32;92.53
75387;DHT22;63966;47.914;22.266;2022-12-04T20:29:41;3.39;92.37
75387;DHT22;63966;47.914;22.266;2022-12-04T20:32:45;3.42;92.17
75387;DHT22;63966;47.914;22.266;2022-12-04T20:35:49;3.41;92.15
75387;DHT22;63966;47.914;22.266;2022-12-04T20:38:54;3.25;92.05
75387;DHT22;63966;47.914;22.266;2022-12-04T20:42:00;3.21;92.63
75387;DHT22;63966;47.914;22.266;2022-12-04T20:45:04;3.17;92.81
75387;DHT22;63966;47.914;22.266;2022-12-04T20:48:08;3.15;92.88
75387;DHT22;63966;47.914;22.266;2022-12-04T20:51:12;3.17;93.02
75387;DHT22;63966;47.914;22.266;2022-12-04T20:54:19;3.12;93.21
75387;DHT22;63966;47.914;22.266;2022-12-04T20:57:22;3.12;93.26
75387;DHT22;63966;47.914;22.266;2022-12-04T21:00:26;3.10;93.31
75387;DHT22;63966;47.914;22.266;2022-12-04T21:03:30;3.12;93.28
75387;DHT22;63966;47.914;22.266;2022-12-04T21:06:38;3.18;93.26
75387;DHT22;63966;47.914;22.266;2022-12-04T21:09:42;3.43;92.25
75387;DHT22;63966;47.914;22.266;2022-12-04T21:12:46;3.27;92.30
75387;DHT22;63966;47.914;22.266;2022-12-04T21:16:08;3.10;92.61
75387;DHT22;63966;47.914;22.266;2022-12-04T21:19:15;2.82;91.81
75387;DHT22;63966;47.914;22.266;2022-12-04T21:22:19;2.59;91.53
75387;DHT22;63966;47.914;22.266;2022-12-04T21:25:22;2.50;92.28
75387;DHT22;63966;47.914;22.266;2022-12-04T21:28:27;2.41;92.31
75387;DHT22;63966;47.914;22.266;2022-12-04T21:31:31;2.41;92.98
75387;DHT22;63966;47.914;22.266;2022-12-04T21:34:35;2.45;93.63
75387;DHT22;63966;47.914;22.266;2022-12-04T21:37:38;2.34;92.83